createdAt,value
2018-01-01T02:07:16.720Z,8.80
2018-01-01T02:09:44.433Z,8.82
2018-01-01T02:12:12.253Z,8.80
2018-01-01T02:14:42.764Z,8.83
2018-01-01T02:17:10.744Z,8.83
2018-01-01T02:19:38.519Z,8.79
2018-01-01T02:22:06.730Z,8.77
2018-01-01T02:24:34.552Z,8.78
2018-01-01T02:27:02.316Z,8.75
2018-01-01T02:29:30.068Z,8.75
2018-01-01T02:31:57.919Z,8.74
2018-01-01T02:34:28.318Z,8.75
2018-01-01T02:36:56.486Z,8.79
2018-01-01T02:39:25.859Z,8.80
2018-01-01T02:41:54.651Z,8.77
2018-01-01T02:44:23.220Z,8.74
2018-01-01T02:46:50.936Z,8.76
2018-01-01T02:49:18.840Z,8.75
2018-01-01T02:51:50.280Z,8.73
2018-01-01T02:54:19.658Z,8.70
2018-01-01T02:56:51.648Z,8.68
2018-01-01T02:59:20.811Z,8.66
2018-01-01T03:01:49.890Z,8.67
2018-01-01T03:04:18.492Z,8.64
2018-01-01T03:06:49.484Z,8.60
2018-01-01T03:09:19.152Z,8.57
2018-01-01T03:11:48.116Z,8.57
2018-01-01T03:14:17.055Z,8.55
2018-01-01T03:16:46.234Z,8.52
2018-01-01T03:19:16.472Z,8.47
2018-01-01T03:21:44.483Z,8.48
2018-01-01T03:24:12.776Z,8.47
2018-01-01T03:26:40.524Z,8.40
2018-01-01T03:29:08.352Z,8.39
2018-01-01T03:31:39.083Z,8.38
2018-01-01T03:34:06.870Z,8.33
2018-01-01T03:36:35.788Z,8.37
2018-01-01T03:39:03.756Z,8.36
2018-01-01T03:42:08.183Z,8.34
2018-01-01T03:44:42.069Z,8.22
2018-01-01T03:47:12.535Z,8.23
2018-01-01T03:49:48.012Z,8.20
2018-01-01T03:52:17.913Z,8.22
2018-01-01T03:54:50.495Z,8.19
2018-01-01T03:57:21.067Z,8.17
2018-01-01T04:02:25.290Z,8.08
2018-01-01T04:04:57.634Z,8.06
2018-01-01T04:07:30.388Z,8.06
2018-01-01T04:10:07.124Z,8.00
2018-01-01T04:12:37.730Z,7.96
2018-01-01T04:15:05.788Z,8.02
2018-01-01T04:17:33.586Z,8.00
2018-01-01T04:20:01.671Z,7.98
2018-01-01T04:22:33.293Z,7.99
2018-01-01T04:25:02.694Z,7.99
2018-01-01T04:27:30.561Z,7.97
2018-01-01T04:29:59.324Z,7.92
2018-01-01T04:32:28.003Z,7.91
2018-01-01T04:34:55.787Z,7.91
2018-01-01T04:37:23.679Z,7.84
2018-01-01T04:39:55.055Z,7.81
2018-01-01T04:42:28.936Z,7.76
2018-01-01T04:44:59.710Z,7.76
2018-01-01T04:47:27.572Z,7.74
2018-01-01T04:49:56.206Z,7.71
2018-01-01T04:52:25.581Z,7.68
2018-01-01T04:55:05.934Z,7.70
2018-01-01T04:57:33.839Z,7.66
2018-01-01T05:00:03.206Z,7.64
2018-01-01T05:02:38.833Z,7.60
2018-01-01T05:05:06.651Z,7.60
2018-01-01T05:07:38.676Z,7.55
2018-01-01T05:10:09.370Z,7.52
2018-01-01T05:12:45.985Z,7.54
2018-01-01T05:15:25.308Z,7.53
2018-01-01T05:17:56.220Z,7.49
2018-01-01T05:20:32.678Z,7.50
2018-01-01T05:23:09.357Z,7.48
2018-01-01T05:25:43.309Z,7.51
2018-01-01T05:28:17.337Z,7.49
2018-01-01T05:30:48.460Z,7.55
2018-01-01T05:33:27.576Z,7.54
2018-01-01T05:42:05.874Z,7.55
2018-01-01T05:44:54.820Z,7.61
2018-01-01T05:47:26.186Z,7.57
2018-01-01T05:55:47.570Z,7.52
2018-01-01T05:58:17.124Z,7.46
2018-01-01T06:00:47.705Z,7.46
2018-01-01T11:10:41.469Z,7.55
2018-01-01T11:13:14.118Z,7.52
2018-01-01T11:15:57.305Z,7.53
2018-01-01T11:58:00.507Z,7.69
2018-01-01T12:00:28.211Z,7.75
2018-01-01T12:06:07.216Z,7.79
2018-01-01T12:08:35.592Z,7.79
2018-01-01T12:11:06.085Z,7.81
2018-01-01T12:13:33.886Z,7.84
2018-01-01T12:16:01.577Z,7.81
2018-01-01T12:18:31.182Z,7.83
2018-01-01T12:23:36.552Z,7.81
2018-01-01T12:26:07.103Z,7.83
2018-01-01T12:28:36.014Z,7.91
2018-01-01T12:31:05.182Z,7.91
2018-01-01T12:33:35.406Z,7.91
2018-01-01T12:36:04.497Z,7.92
2018-01-01T12:38:33.492Z,7.93
2018-01-01T12:41:02.799Z,7.91
2018-01-01T12:43:33.293Z,7.95
2018-01-01T12:46:01.408Z,7.95
2018-01-01T12:48:30.208Z,7.95
2018-01-01T12:51:02.424Z,7.98
2018-01-01T12:53:30.642Z,8.04
2018-01-01T12:55:59.677Z,8.04
2018-01-01T12:58:33.751Z,8.07
2018-01-01T13:01:06.737Z,8.09
2018-01-01T13:03:35.393Z,8.12
2018-01-01T13:06:04.088Z,8.09
2018-01-01T13:08:38.514Z,8.11
2018-01-01T13:11:32.384Z,8.08
2018-01-01T13:14:16.075Z,8.08
2018-01-01T13:16:44.012Z,8.04
2018-01-01T13:19:11.758Z,8.07
2018-01-01T13:21:39.793Z,8.04
2018-01-01T13:24:10.364Z,8.05
2018-01-01T13:26:38.005Z,8.04
2018-01-01T13:29:05.782Z,8.00
2018-01-01T13:31:34.312Z,7.97
2018-01-01T13:34:02.036Z,7.99
2018-01-01T14:12:47.532Z,8.03
2018-01-01T14:15:16.694Z,8.03
2018-01-01T14:17:47.120Z,8.01
2018-01-01T14:20:14.838Z,8.00
2018-01-01T14:22:47.566Z,7.98
2018-01-01T14:28:36.395Z,7.95
2018-01-01T14:31:08.842Z,7.92
2018-01-01T14:33:36.903Z,7.90
2018-01-01T14:36:12.616Z,7.88
2018-01-01T14:38:53.046Z,7.83
2018-01-01T14:41:20.771Z,7.82
2018-01-01T14:43:52.217Z,7.80
2018-01-01T14:47:15.313Z,7.75
2018-01-01T14:49:59.240Z,7.69
2018-01-01T14:52:31.463Z,7.66
2018-01-01T14:55:01.310Z,7.61
2018-01-01T15:11:22.234Z,7.48
2018-01-01T15:13:55.511Z,7.45
2018-01-01T15:16:23.316Z,7.41
2018-01-01T15:18:51.025Z,7.37
2018-01-01T15:21:18.675Z,7.37
2018-01-01T15:23:46.362Z,7.35
2018-01-01T15:26:14.112Z,7.31
2018-01-01T15:28:41.861Z,7.32
2018-01-01T15:31:09.669Z,7.32
2018-01-01T15:33:37.413Z,7.32
2018-01-01T15:36:06.012Z,7.32
2018-01-01T15:38:34.149Z,7.32
2018-01-01T15:41:02.415Z,7.32
2018-01-01T15:43:30.122Z,7.31
2018-01-01T15:46:00.717Z,7.33
2018-01-01T15:48:28.306Z,7.32
2018-01-01T15:50:56.446Z,7.30
2018-01-01T15:53:24.413Z,7.31
2018-01-01T15:55:52.217Z,7.34
2018-01-01T15:58:20.739Z,7.33
2018-01-01T16:43:58.387Z,7.29
2018-01-01T16:46:28.411Z,7.28
2018-01-01T16:48:56.559Z,7.28
2018-01-01T16:51:24.322Z,7.29
2018-01-01T16:53:51.983Z,7.28
2018-01-01T16:56:19.709Z,7.27
2018-01-01T16:58:47.435Z,7.24
2018-01-01T17:01:15.131Z,7.22
2018-01-01T17:03:43.132Z,7.22
2018-01-01T17:06:11.217Z,7.22
2018-01-01T17:08:41.137Z,7.24
2018-01-01T17:11:08.921Z,7.23
2018-01-01T17:13:37.430Z,7.25
2018-01-01T17:16:09.898Z,7.26
2018-01-01T17:18:37.907Z,7.27
2018-01-01T17:21:05.977Z,7.30
2018-01-01T17:23:33.854Z,7.28
2018-01-01T17:26:01.569Z,7.26
2018-01-01T17:28:29.388Z,7.22
2018-01-01T17:30:57.338Z,7.19
2018-01-01T17:33:32.557Z,7.20
2018-01-01T17:36:02.620Z,7.19
2018-01-01T17:38:30.810Z,7.17
2018-01-01T17:40:58.630Z,7.12
2018-01-01T17:43:26.903Z,7.12
2018-01-01T17:45:54.800Z,7.09
2018-01-01T17:48:22.534Z,7.08
2018-01-01T17:50:50.359Z,7.07
2018-01-01T17:53:18.080Z,7.04
2018-01-01T17:55:45.880Z,7.04
2018-01-01T17:58:13.813Z,7.03
2018-01-01T18:00:41.626Z,6.97
2018-01-01T18:03:11.331Z,6.97
2018-01-01T18:05:39.101Z,6.94
2018-01-01T18:08:08.767Z,6.95
2018-01-01T18:10:36.474Z,6.94
2018-01-01T18:13:04.120Z,6.93
2018-01-01T18:15:31.786Z,6.92
2018-01-01T18:17:59.496Z,6.91
2018-01-01T18:20:27.284Z,6.91
2018-01-01T18:24:13.992Z,6.90
2018-01-01T18:26:41.827Z,6.91
2018-01-01T18:29:09.631Z,6.92
2018-01-01T18:31:37.492Z,6.92
2018-01-01T18:34:05.242Z,6.92
2018-01-01T18:36:33.435Z,6.90
2018-01-01T18:39:01.216Z,6.88
2018-01-01T18:41:29.393Z,6.88
2018-01-01T18:43:57.867Z,6.85
2018-01-01T18:46:26.040Z,6.84
2018-01-01T18:48:55.465Z,6.83
2018-01-01T18:51:23.169Z,6.80
2018-01-01T18:53:51.046Z,6.79
2018-01-01T18:56:18.721Z,6.78
2018-01-01T18:58:46.501Z,6.76
2018-01-01T19:01:15.483Z,6.69
2018-01-01T19:03:43.782Z,6.66
2018-01-01T19:06:11.475Z,6.67
2018-01-01T19:08:39.239Z,6.68
2018-01-01T19:11:08.047Z,6.69
2018-01-01T19:13:35.833Z,6.70
2018-01-01T19:16:03.751Z,6.68
2018-01-01T19:18:31.611Z,6.69
2018-01-01T19:20:59.511Z,6.69
2018-01-01T19:23:27.302Z,6.71
2018-01-01T19:25:55.082Z,6.70
2018-01-01T19:28:22.958Z,6.68
2018-01-01T19:30:50.811Z,6.68
2018-01-01T19:33:21.749Z,6.68
2018-01-01T19:35:49.595Z,6.68
2018-01-01T19:38:18.510Z,6.68
2018-01-01T19:40:46.213Z,6.66
2018-01-01T19:43:13.943Z,6.63
2018-01-01T19:45:42.822Z,6.61
2018-01-01T19:48:10.535Z,6.59
2018-01-01T19:50:38.214Z,6.58
2018-01-01T19:53:06.046Z,6.55
2018-01-01T19:55:33.879Z,6.55
2018-01-01T19:58:01.597Z,6.54
2018-01-01T20:00:29.422Z,6.55
2018-01-01T20:02:57.113Z,6.55
2018-01-01T20:05:26.622Z,6.56
2018-01-01T20:07:57.474Z,6.56
2018-01-01T20:10:27.327Z,6.54
